sensor_id;sensor_type;location;lat;lon;timestamp;P1;durP1;ratioP1;P2;durP2;ratioP2
60336;SDS011;46978;50.288;28.624;2022-12-07T00:00:20;8.68;;;4.79;;
60336;SDS011;46978;50.288;28.624;2022-12-07T00:01:26;8.01;;;4.52;;
60336;SDS011;46978;50.288;28.624;2022-12-07T00:02:30;8.71;;;5.52;;
60336;SDS011;46978;50.288;28.624;2022-12-07T00:03:32;9.69;;;5.15;;
60336;SDS011;46978;50.288;28.624;2022-12-07T00:04:34;9.76;;;5.47;;
60336;SDS011;46978;50.288;28.624;2022-12-07T00:05:36;11.09;;;5.61;;
60336;SDS011;46978;50.288;28.624;2022-12-07T00:06:38;14.25;;;7.09;;
60336;SDS011;46978;50.288;28.624;2022-12-07T00:07:44;13.24;;;6.84;;
60336;SDS011;46978;50.288;28.624;2022-12-07T00:08:46;8.90;;;5.52;;
60336;SDS011;46978;50.288;28.624;2022-12-07T00:09:48;8.93;;;5.61;;
60336;SDS011;46978;50.288;28.624;2022-12-07T00:10:50;10.46;;;6.36;;
60336;SDS011;46978;50.288;28.624;2022-12-07T00:11:52;13.84;;;7.39;;
60336;SDS011;46978;50.288;28.624;2022-12-07T00:12:53;14.56;;;7.34;;
60336;SDS011;46978;50.288;28.624;2022-12-07T00:13:56;11.01;;;5.94;;
60336;SDS011;46978;50.288;28.624;2022-12-07T00:14:59;10.39;;;6.03;;
60336;SDS011;46978;50.288;28.624;2022-12-07T00:16:01;12.46;;;6.89;;
60336;SDS011;46978;50.288;28.624;2022-12-07T00:17:05;12.53;;;6.82;;
60336;SDS011;46978;50.288;28.624;2022-12-07T00:18:06;11.40;;;7.29;;
60336;SDS011;46978;50.288;28.624;2022-12-07T00:19:09;8.24;;;5.22;;
60336;SDS011;46978;50.288;28.624;2022-12-07T00:20:12;9.28;;;5.37;;
60336;SDS011;46978;50.288;28.624;2022-12-07T00:21:18;9.89;;;5.16;;
60336;SDS011;46978;50.288;28.624;2022-12-07T00:22:19;9.24;;;5.67;;
60336;SDS011;46978;50.288;28.624;2022-12-07T00:23:20;12.81;;;6.76;;
60336;SDS011;46978;50.288;28.624;2022-12-07T00:24:22;10.93;;;5.76;;
60336;SDS011;46978;50.288;28.624;2022-12-07T00:25:24;10.00;;;6.14;;
60336;SDS011;46978;50.288;28.624;2022-12-07T00:26:27;7.45;;;4.57;;
60336;SDS011;46978;50.288;28.624;2022-12-07T00:27:30;8.14;;;5.28;;
60336;SDS011;46978;50.288;28.624;2022-12-07T00:28:32;7.94;;;5.08;;
60336;SDS011;46978;50.288;28.624;2022-12-07T00:29:34;7.19;;;4.80;;
60336;SDS011;46978;50.288;28.624;2022-12-07T00:30:36;9.89;;;5.25;;
60336;SDS011;46978;50.288;28.624;2022-12-07T00:31:37;9.73;;;5.03;;
60336;SDS011;46978;50.288;28.624;2022-12-07T00:32:39;11.21;;;6.28;;
60336;SDS011;46978;50.288;28.624;2022-12-07T00:33:41;10.12;;;6.36;;
60336;SDS011;46978;50.288;28.624;2022-12-07T00:34:43;11.29;;;6.63;;
60336;SDS011;46978;50.288;28.624;2022-12-07T00:35:45;11.84;;;7.52;;
60336;SDS011;46978;50.288;28.624;2022-12-07T00:36:47;12.62;;;7.11;;
60336;SDS011;46978;50.288;28.624;2022-12-07T00:37:49;10.77;;;6.30;;
60336;SDS011;46978;50.288;28.624;2022-12-07T00:38:51;9.92;;;5.39;;
60336;SDS011;46978;50.288;28.624;2022-12-07T00:39:53;12.41;;;6.48;;
60336;SDS011;46978;50.288;28.624;2022-12-07T00:41:00;13.94;;;7.30;;
60336;SDS011;46978;50.288;28.624;2022-12-07T00:42:00;12.36;;;6.73;;
60336;SDS011;46978;50.288;28.624;2022-12-07T00:43:02;9.23;;;5.51;;
60336;SDS011;46978;50.288;28.624;2022-12-07T00:44:03;9.82;;;6.26;;
60336;SDS011;46978;50.288;28.624;2022-12-07T00:45:06;10.58;;;6.61;;
60336;SDS011;46978;50.288;28.624;2022-12-07T00:46:09;11.34;;;7.16;;
60336;SDS011;46978;50.288;28.624;2022-12-07T00:47:11;11.03;;;6.35;;
60336;SDS011;46978;50.288;28.624;2022-12-07T00:48:13;9.29;;;5.59;;
60336;SDS011;46978;50.288;28.624;2022-12-07T00:49:14;9.38;;;6.17;;
60336;SDS011;46978;50.288;28.624;2022-12-07T00:50:16;9.69;;;5.93;;
60336;SDS011;46978;50.288;28.624;2022-12-07T00:51:19;10.51;;;6.34;;
60336;SDS011;46978;50.288;28.624;2022-12-07T00:52:22;9.24;;;5.37;;
60336;SDS011;46978;50.288;28.624;2022-12-07T00:53:24;10.86;;;6.29;;
60336;SDS011;46978;50.288;28.624;2022-12-07T00:54:26;8.15;;;5.61;;
60336;SDS011;46978;50.288;28.624;2022-12-07T00:55:27;8.75;;;5.30;;
60336;SDS011;46978;50.288;28.624;2022-12-07T00:56:29;10.47;;;6.33;;
60336;SDS011;46978;50.288;28.624;2022-12-07T00:57:31;10.93;;;6.03;;
60336;SDS011;46978;50.288;28.624;2022-12-07T00:58:33;11.38;;;6.08;;
60336;SDS011;46978;50.288;28.624;2022-12-07T00:59:35;8.36;;;5.25;;
60336;SDS011;46978;50.288;28.624;2022-12-07T01:00:37;9.71;;;5.37;;
60336;SDS011;46978;50.288;28.624;2022-12-07T01:01:40;10.34;;;5.96;;
60336;SDS011;46978;50.288;28.624;2022-12-07T01:02:42;10.15;;;5.94;;
60336;SDS011;46978;50.288;28.624;2022-12-07T01:03:43;12.04;;;6.25;;
60336;SDS011;46978;50.288;28.624;2022-12-07T01:04:45;8.48;;;5.27;;
60336;SDS011;46978;50.288;28.624;2022-12-07T01:05:50;8.79;;;5.26;;
60336;SDS011;46978;50.288;28.624;2022-12-07T01:06:54;7.61;;;5.62;;
60336;SDS011;46978;50.288;28.624;2022-12-07T01:07:56;11.01;;;5.64;;
60336;SDS011;46978;50.288;28.624;2022-12-07T01:08:58;9.45;;;5.36;;
60336;SDS011;46978;50.288;28.624;2022-12-07T01:10:00;9.64;;;5.23;;
60336;SDS011;46978;50.288;28.624;2022-12-07T01:11:06;8.47;;;5.06;;
60336;SDS011;46978;50.288;28.624;2022-12-07T01:12:10;8.76;;;5.81;;
60336;SDS011;46978;50.288;28.624;2022-12-07T01:13:12;12.51;;;6.38;;
60336;SDS011;46978;50.288;28.624;2022-12-07T01:14:14;15.23;;;7.73;;
60336;SDS011;46978;50.288;28.624;2022-12-07T01:15:16;14.29;;;6.98;;
60336;SDS011;46978;50.288;28.624;2022-12-07T01:16:18;13.39;;;7.67;;
60336;SDS011;46978;50.288;28.624;2022-12-07T01:17:21;9.58;;;6.25;;
60336;SDS011;46978;50.288;28.624;2022-12-07T01:18:22;11.57;;;6.50;;
60336;SDS011;46978;50.288;28.624;2022-12-07T01:19:24;9.65;;;5.63;;
60336;SDS011;46978;50.288;28.624;2022-12-07T01:20:26;12.23;;;6.35;;
60336;SDS011;46978;50.288;28.624;2022-12-07T01:21:29;11.10;;;5.96;;
60336;SDS011;46978;50.288;28.624;2022-12-07T01:22:36;10.18;;;5.72;;
60336;SDS011;46978;50.288;28.624;2022-12-07T01:23:39;10.37;;;6.15;;
60336;SDS011;46978;50.288;28.624;2022-12-07T01:24:42;12.72;;;6.42;;
60336;SDS011;46978;50.288;28.624;2022-12-07T01:25:43;8.91;;;5.39;;
60336;SDS011;46978;50.288;28.624;2022-12-07T01:26:45;8.10;;;5.09;;
60336;SDS011;46978;50.288;28.624;2022-12-07T01:27:50;10.09;;;6.12;;
60336;SDS011;46978;50.288;28.624;2022-12-07T01:28:52;9.56;;;6.36;;
60336;SDS011;46978;50.288;28.624;2022-12-07T01:29:55;12.67;;;7.00;;
60336;SDS011;46978;50.288;28.624;2022-12-07T01:30:57;11.26;;;6.33;;
60336;SDS011;46978;50.288;28.624;2022-12-07T01:32:01;10.38;;;6.20;;
60336;SDS011;46978;50.288;28.624;2022-12-07T01:33:02;9.46;;;5.57;;
60336;SDS011;46978;50.288;28.624;2022-12-07T01:34:04;8.74;;;5.54;;
60336;SDS011;46978;50.288;28.624;2022-12-07T01:35:06;7.29;;;4.94;;
60336;SDS011;46978;50.288;28.624;2022-12-07T01:36:20;9.58;;;5.28;;
60336;SDS011;46978;50.288;28.624;2022-12-07T01:37:23;9.98;;;5.54;;
60336;SDS011;46978;50.288;28.624;2022-12-07T01:38:25;10.14;;;5.96;;
60336;SDS011;46978;50.288;28.624;2022-12-07T01:39:26;9.53;;;5.50;;
60336;SDS011;46978;50.288;28.624;2022-12-07T01:40:28;12.49;;;6.91;;
60336;SDS011;46978;50.288;28.624;2022-12-07T01:41:31;13.89;;;8.27;;
60336;SDS011;46978;50.288;28.624;2022-12-07T01:42:35;16.43;;;10.25;;
60336;SDS011;46978;50.288;28.624;2022-12-07T01:43:36;9.14;;;5.39;;
60336;SDS011;46978;50.288;28.624;2022-12-07T01:46:21;10.83;;;6.38;;
60336;SDS011;46978;50.288;28.624;2022-12-07T01:47:23;11.49;;;7.21;;
60336;SDS011;46978;50.288;28.624;2022-12-07T01:48:34;9.99;;;5.75;;
60336;SDS011;46978;50.288;28.624;2022-12-07T01:49:43;8.14;;;4.88;;
60336;SDS011;46978;50.288;28.624;2022-12-07T01:50:48;7.46;;;4.65;;
60336;SDS011;46978;50.288;28.624;2022-12-07T01:51:55;6.84;;;4.74;;
60336;SDS011;46978;50.288;28.624;2022-12-07T01:52:58;8.56;;;5.06;;
60336;SDS011;46978;50.288;28.624;2022-12-07T01:54:02;7.05;;;4.86;;
60336;SDS011;46978;50.288;28.624;2022-12-07T01:55:06;8.21;;;5.05;;
60336;SDS011;46978;50.288;28.624;2022-12-07T01:56:15;9.59;;;5.31;;
60336;SDS011;46978;50.288;28.624;2022-12-07T01:57:18;7.99;;;4.94;;
60336;SDS011;46978;50.288;28.624;2022-12-07T01:58:21;8.79;;;5.21;;
60336;SDS011;46978;50.288;28.624;2022-12-07T01:59:24;8.07;;;4.64;;
60336;SDS011;46978;50.288;28.624;2022-12-07T02:00:27;7.99;;;4.71;;
60336;SDS011;46978;50.288;28.624;2022-12-07T02:01:29;7.74;;;5.32;;
60336;SDS011;46978;50.288;28.624;2022-12-07T02:02:32;10.06;;;5.59;;
60336;SDS011;46978;50.288;28.624;2022-12-07T02:03:37;10.51;;;5.50;;
60336;SDS011;46978;50.288;28.624;2022-12-07T02:04:41;8.38;;;5.34;;
60336;SDS011;46978;50.288;28.624;2022-12-07T02:05:44;9.29;;;5.04;;
60336;SDS011;46978;50.288;28.624;2022-12-07T02:06:48;8.18;;;4.82;;
60336;SDS011;46978;50.288;28.624;2022-12-07T02:07:50;8.63;;;4.77;;
60336;SDS011;46978;50.288;28.624;2022-12-07T02:08:54;7.22;;;4.59;;
60336;SDS011;46978;50.288;28.624;2022-12-07T02:09:55;9.29;;;5.04;;
60336;SDS011;46978;50.288;28.624;2022-12-07T02:10:58;8.95;;;5.41;;
60336;SDS011;46978;50.288;28.624;2022-12-07T02:12:00;7.60;;;4.93;;
60336;SDS011;46978;50.288;28.624;2022-12-07T02:13:06;8.06;;;4.87;;
60336;SDS011;46978;50.288;28.624;2022-12-07T02:14:14;8.90;;;4.96;;
60336;SDS011;46978;50.288;28.624;2022-12-07T02:15:16;7.49;;;4.74;;
60336;SDS011;46978;50.288;28.624;2022-12-07T02:20:39;8.54;;;4.68;;
60336;SDS011;46978;50.288;28.624;2022-12-07T02:24:23;8.13;;;4.33;;
60336;SDS011;46978;50.288;28.624;2022-12-07T02:25:33;7.09;;;4.61;;
60336;SDS011;46978;50.288;28.624;2022-12-07T02:27:58;7.65;;;4.82;;
60336;SDS011;46978;50.288;28.624;2022-12-07T02:30:32;5.99;;;3.82;;
60336;SDS011;46978;50.288;28.624;2022-12-07T02:31:37;6.88;;;4.67;;
60336;SDS011;46978;50.288;28.624;2022-12-07T02:34:07;15.92;;;9.75;;
60336;SDS011;46978;50.288;28.624;2022-12-07T02:37:03;10.31;;;5.99;;
60336;SDS011;46978;50.288;28.624;2022-12-07T02:37:41;9.15;;;5.46;;
60336;SDS011;46978;50.288;28.624;2022-12-07T02:38:50;9.21;;;5.87;;
60336;SDS011;46978;50.288;28.624;2022-12-07T02:39:57;10.71;;;6.37;;
60336;SDS011;46978;50.288;28.624;2022-12-07T02:41:02;11.84;;;6.73;;
60336;SDS011;46978;50.288;28.624;2022-12-07T02:42:14;10.23;;;6.06;;
60336;SDS011;46978;50.288;28.624;2022-12-07T02:43:26;10.11;;;5.06;;
60336;SDS011;46978;50.288;28.624;2022-12-07T02:44:30;9.56;;;4.83;;
60336;SDS011;46978;50.288;28.624;2022-12-07T02:45:34;10.74;;;4.67;;
60336;SDS011;46978;50.288;28.624;2022-12-07T02:46:39;7.52;;;4.61;;
60336;SDS011;46978;50.288;28.624;2022-12-07T02:47:43;8.85;;;4.59;;
60336;SDS011;46978;50.288;28.624;2022-12-07T02:48:48;8.26;;;4.32;;
60336;SDS011;46978;50.288;28.624;2022-12-07T02:49:51;9.21;;;4.89;;
60336;SDS011;46978;50.288;28.624;2022-12-07T02:50:54;8.26;;;4.65;;
60336;SDS011;46978;50.288;28.624;2022-12-07T02:51:56;5.42;;;3.71;;
60336;SDS011;46978;50.288;28.624;2022-12-07T02:52:57;7.70;;;4.56;;
60336;SDS011;46978;50.288;28.624;2022-12-07T02:53:59;8.45;;;4.61;;
60336;SDS011;46978;50.288;28.624;2022-12-07T02:55:01;8.41;;;4.31;;
60336;SDS011;46978;50.288;28.624;2022-12-07T02:56:13;7.12;;;3.66;;
60336;SDS011;46978;50.288;28.624;2022-12-07T03:03:27;6.83;;;3.94;;
60336;SDS011;46978;50.288;28.624;2022-12-07T03:07:17;5.61;;;3.68;;
60336;SDS011;46978;50.288;28.624;2022-12-07T03:12:12;11.12;;;6.12;;
60336;SDS011;46978;50.288;28.624;2022-12-07T03:13:19;12.72;;;5.69;;
60336;SDS011;46978;50.288;28.624;2022-12-07T03:14:31;9.23;;;4.77;;
60336;SDS011;46978;50.288;28.624;2022-12-07T03:16:55;7.39;;;3.94;;
60336;SDS011;46978;50.288;28.624;2022-12-07T03:17:58;10.08;;;5.12;;
60336;SDS011;46978;50.288;28.624;2022-12-07T03:19:05;11.40;;;5.56;;
60336;SDS011;46978;50.288;28.624;2022-12-07T03:20:15;11.03;;;6.01;;
60336;SDS011;46978;50.288;28.624;2022-12-07T03:21:21;23.39;;;11.71;;
60336;SDS011;46978;50.288;28.624;2022-12-07T03:22:28;25.53;;;12.87;;
60336;SDS011;46978;50.288;28.624;2022-12-07T03:23:33;22.83;;;12.97;;
60336;SDS011;46978;50.288;28.624;2022-12-07T03:25:47;12.40;;;7.02;;
60336;SDS011;46978;50.288;28.624;2022-12-07T03:26:54;8.48;;;5.01;;
60336;SDS011;46978;50.288;28.624;2022-12-07T03:27:59;10.51;;;5.35;;
60336;SDS011;46978;50.288;28.624;2022-12-07T03:29:05;10.01;;;4.73;;
60336;SDS011;46978;50.288;28.624;2022-12-07T03:30:13;7.24;;;4.05;;
60336;SDS011;46978;50.288;28.624;2022-12-07T03:31:22;7.36;;;3.64;;
60336;SDS011;46978;50.288;28.624;2022-12-07T03:32:31;8.94;;;4.88;;
60336;SDS011;46978;50.288;28.624;2022-12-07T03:33:46;6.85;;;3.62;;
60336;SDS011;46978;50.288;28.624;2022-12-07T03:34:51;6.39;;;3.54;;
60336;SDS011;46978;50.288;28.624;2022-12-07T03:35:58;5.76;;;3.07;;
60336;SDS011;46978;50.288;28.624;2022-12-07T03:38:25;5.09;;;3.11;;
60336;SDS011;46978;50.288;28.624;2022-12-07T03:40:35;6.63;;;3.70;;
60336;SDS011;46978;50.288;28.624;2022-12-07T03:41:56;6.96;;;3.91;;
60336;SDS011;46978;50.288;28.624;2022-12-07T03:43:01;6.54;;;3.82;;
60336;SDS011;46978;50.288;28.624;2022-12-07T03:44:04;8.41;;;4.72;;
60336;SDS011;46978;50.288;28.624;2022-12-07T03:45:08;7.27;;;3.87;;
60336;SDS011;46978;50.288;28.624;2022-12-07T03:47:47;9.03;;;4.37;;
60336;SDS011;46978;50.288;28.624;2022-12-07T03:48:54;8.82;;;4.98;;
60336;SDS011;46978;50.288;28.624;2022-12-07T03:50:14;9.15;;;3.96;;
60336;SDS011;46978;50.288;28.624;2022-12-07T03:52:27;6.25;;;3.59;;
60336;SDS011;46978;50.288;28.624;2022-12-07T03:53:35;8.63;;;4.27;;
60336;SDS011;46978;50.288;28.624;2022-12-07T03:54:51;8.07;;;4.36;;
60336;SDS011;46978;50.288;28.624;2022-12-07T03:56:02;5.86;;;3.06;;
60336;SDS011;46978;50.288;28.624;2022-12-07T03:57:05;5.89;;;3.17;;
60336;SDS011;46978;50.288;28.624;2022-12-07T03:58:10;8.82;;;4.84;;
60336;SDS011;46978;50.288;28.624;2022-12-07T03:59:14;16.94;;;7.24;;
60336;SDS011;46978;50.288;28.624;2022-12-07T04:00:18;12.97;;;6.29;;
60336;SDS011;46978;50.288;28.624;2022-12-07T04:01:22;9.74;;;5.34;;
60336;SDS011;46978;50.288;28.624;2022-12-07T04:02:25;9.88;;;4.65;;
60336;SDS011;46978;50.288;28.624;2022-12-07T04:03:28;7.98;;;4.06;;
60336;SDS011;46978;50.288;28.624;2022-12-07T04:04:30;7.79;;;3.87;;
60336;SDS011;46978;50.288;28.624;2022-12-07T04:05:32;9.03;;;4.15;;
60336;SDS011;46978;50.288;28.624;2022-12-07T04:06:35;6.69;;;3.53;;
60336;SDS011;46978;50.288;28.624;2022-12-07T04:07:37;7.91;;;3.73;;
60336;SDS011;46978;50.288;28.624;2022-12-07T04:08:38;14.76;;;6.37;;
60336;SDS011;46978;50.288;28.624;2022-12-07T04:09:40;15.82;;;6.60;;
60336;SDS011;46978;50.288;28.624;2022-12-07T04:10:42;22.15;;;10.47;;
60336;SDS011;46978;50.288;28.624;2022-12-07T04:11:44;10.66;;;6.19;;
60336;SDS011;46978;50.288;28.624;2022-12-07T04:12:45;6.69;;;4.03;;
60336;SDS011;46978;50.288;28.624;2022-12-07T04:13:47;8.94;;;5.17;;
60336;SDS011;46978;50.288;28.624;2022-12-07T04:14:49;9.24;;;5.84;;
60336;SDS011;46978;50.288;28.624;2022-12-07T04:15:51;9.06;;;5.80;;
60336;SDS011;46978;50.288;28.624;2022-12-07T04:16:53;8.53;;;6.25;;
60336;SDS011;46978;50.288;28.624;2022-12-07T04:17:57;6.34;;;4.09;;
60336;SDS011;46978;50.288;28.624;2022-12-07T04:18:59;5.54;;;3.60;;
60336;SDS011;46978;50.288;28.624;2022-12-07T04:20:01;5.57;;;3.42;;
60336;SDS011;46978;50.288;28.624;2022-12-07T04:21:02;4.42;;;2.91;;
60336;SDS011;46978;50.288;28.624;2022-12-07T04:22:04;5.32;;;3.20;;
60336;SDS011;46978;50.288;28.624;2022-12-07T04:23:07;9.24;;;4.84;;
60336;SDS011;46978;50.288;28.624;2022-12-07T04:24:08;7.19;;;4.17;;
60336;SDS011;46978;50.288;28.624;2022-12-07T04:25:10;5.77;;;3.33;;
60336;SDS011;46978;50.288;28.624;2022-12-07T04:26:12;10.41;;;4.29;;
60336;SDS011;46978;50.288;28.624;2022-12-07T04:27:14;16.12;;;6.75;;
60336;SDS011;46978;50.288;28.624;2022-12-07T04:28:16;10.01;;;5.49;;
60336;SDS011;46978;50.288;28.624;2022-12-07T04:29:18;11.01;;;4.71;;
60336;SDS011;46978;50.288;28.624;2022-12-07T04:30:20;6.59;;;3.55;;
60336;SDS011;46978;50.288;28.624;2022-12-07T04:31:22;15.01;;;6.29;;
60336;SDS011;46978;50.288;28.624;2022-12-07T04:32:24;12.32;;;5.24;;
60336;SDS011;46978;50.288;28.624;2022-12-07T04:33:25;8.25;;;4.23;;
60336;SDS011;46978;50.288;28.624;2022-12-07T04:34:27;8.93;;;4.65;;
60336;SDS011;46978;50.288;28.624;2022-12-07T04:35:29;12.78;;;5.29;;
60336;SDS011;46978;50.288;28.624;2022-12-07T04:36:31;9.23;;;4.15;;
60336;SDS011;46978;50.288;28.624;2022-12-07T04:37:33;12.92;;;4.96;;
60336;SDS011;46978;50.288;28.624;2022-12-07T04:38:35;10.19;;;5.01;;
60336;SDS011;46978;50.288;28.624;2022-12-07T04:39:37;9.79;;;4.07;;
60336;SDS011;46978;50.288;28.624;2022-12-07T04:40:39;7.75;;;4.00;;
60336;SDS011;46978;50.288;28.624;2022-12-07T04:41:40;10.42;;;4.51;;
60336;SDS011;46978;50.288;28.624;2022-12-07T04:42:42;7.02;;;3.91;;
60336;SDS011;46978;50.288;28.624;2022-12-07T04:43:44;6.84;;;3.30;;
60336;SDS011;46978;50.288;28.624;2022-12-07T04:44:45;7.01;;;3.44;;
60336;SDS011;46978;50.288;28.624;2022-12-07T04:45:47;6.00;;;3.59;;
60336;SDS011;46978;50.288;28.624;2022-12-07T04:46:50;6.29;;;3.38;;
60336;SDS011;46978;50.288;28.624;2022-12-07T04:47:52;6.11;;;3.76;;
60336;SDS011;46978;50.288;28.624;2022-12-07T04:48:54;6.66;;;3.96;;
60336;SDS011;46978;50.288;28.624;2022-12-07T04:49:56;8.83;;;4.65;;
60336;SDS011;46978;50.288;28.624;2022-12-07T04:50:58;6.37;;;3.86;;
60336;SDS011;46978;50.288;28.624;2022-12-07T04:51:59;6.80;;;3.63;;
60336;SDS011;46978;50.288;28.624;2022-12-07T04:53:01;11.04;;;5.23;;
60336;SDS011;46978;50.288;28.624;2022-12-07T04:54:03;6.79;;;3.67;;
60336;SDS011;46978;50.288;28.624;2022-12-07T04:55:05;9.91;;;4.70;;
60336;SDS011;46978;50.288;28.624;2022-12-07T04:56:08;8.20;;;4.47;;
60336;SDS011;46978;50.288;28.624;2022-12-07T04:57:10;7.07;;;3.53;;
60336;SDS011;46978;50.288;28.624;2022-12-07T04:58:11;10.37;;;4.87;;
60336;SDS011;46978;50.288;28.624;2022-12-07T04:59:14;16.44;;;8.43;;
60336;SDS011;46978;50.288;28.624;2022-12-07T05:00:17;19.96;;;11.82;;
60336;SDS011;46978;50.288;28.624;2022-12-07T05:01:20;25.15;;;13.53;;
60336;SDS011;46978;50.288;28.624;2022-12-07T05:02:23;21.98;;;12.54;;
60336;SDS011;46978;50.288;28.624;2022-12-07T05:03:25;13.64;;;8.25;;
60336;SDS011;46978;50.288;28.624;2022-12-07T05:04:26;17.25;;;10.51;;
60336;SDS011;46978;50.288;28.624;2022-12-07T05:05:28;16.09;;;10.03;;
60336;SDS011;46978;50.288;28.624;2022-12-07T05:06:30;15.11;;;9.42;;
60336;SDS011;46978;50.288;28.624;2022-12-07T05:07:32;17.76;;;11.00;;
60336;SDS011;46978;50.288;28.624;2022-12-07T05:08:34;14.04;;;8.04;;
60336;SDS011;46978;50.288;28.624;2022-12-07T05:09:36;13.10;;;9.25;;
60336;SDS011;46978;50.288;28.624;2022-12-07T05:10:38;11.53;;;7.69;;
60336;SDS011;46978;50.288;28.624;2022-12-07T05:11:40;9.78;;;5.72;;
60336;SDS011;46978;50.288;28.624;2022-12-07T05:12:42;8.41;;;5.21;;
60336;SDS011;46978;50.288;28.624;2022-12-07T05:13:44;8.05;;;4.43;;
60336;SDS011;46978;50.288;28.624;2022-12-07T05:14:45;8.37;;;5.10;;
60336;SDS011;46978;50.288;28.624;2022-12-07T05:15:47;7.99;;;4.95;;
60336;SDS011;46978;50.288;28.624;2022-12-07T05:16:50;7.78;;;4.65;;
60336;SDS011;46978;50.288;28.624;2022-12-07T05:17:52;23.63;;;11.79;;
60336;SDS011;46978;50.288;28.624;2022-12-07T05:18:54;19.29;;;9.98;;
60336;SDS011;46978;50.288;28.624;2022-12-07T05:19:56;38.95;;;16.29;;
60336;SDS011;46978;50.288;28.624;2022-12-07T05:20:58;22.46;;;10.80;;
60336;SDS011;46978;50.288;28.624;2022-12-07T05:22:00;15.02;;;6.98;;
60336;SDS011;46978;50.288;28.624;2022-12-07T05:23:01;15.71;;;7.94;;
60336;SDS011;46978;50.288;28.624;2022-12-07T05:24:04;13.61;;;6.71;;
60336;SDS011;46978;50.288;28.624;2022-12-07T05:25:07;11.48;;;4.78;;
60336;SDS011;46978;50.288;28.624;2022-12-07T05:26:10;12.39;;;6.42;;
60336;SDS011;46978;50.288;28.624;2022-12-07T05:27:12;13.99;;;6.94;;
60336;SDS011;46978;50.288;28.624;2022-12-07T05:28:14;13.07;;;7.01;;
60336;SDS011;46978;50.288;28.624;2022-12-07T05:29:16;10.11;;;5.50;;
60336;SDS011;46978;50.288;28.624;2022-12-07T05:30:19;7.06;;;3.66;;
60336;SDS011;46978;50.288;28.624;2022-12-07T05:31:20;10.81;;;4.77;;
60336;SDS011;46978;50.288;28.624;2022-12-07T05:32:23;13.20;;;5.89;;
60336;SDS011;46978;50.288;28.624;2022-12-07T05:33:25;11.61;;;5.92;;
60336;SDS011;46978;50.288;28.624;2022-12-07T05:34:27;14.79;;;6.51;;
60336;SDS011;46978;50.288;28.624;2022-12-07T05:35:28;11.16;;;5.83;;
60336;SDS011;46978;50.288;28.624;2022-12-07T05:36:31;19.49;;;10.41;;
60336;SDS011;46978;50.288;28.624;2022-12-07T05:37:32;13.37;;;7.07;;
60336;SDS011;46978;50.288;28.624;2022-12-07T05:38:34;11.88;;;6.39;;
60336;SDS011;46978;50.288;28.624;2022-12-07T05:39:36;12.98;;;6.60;;
60336;SDS011;46978;50.288;28.624;2022-12-07T05:40:37;19.51;;;9.95;;
60336;SDS011;46978;50.288;28.624;2022-12-07T05:41:39;17.91;;;9.83;;
60336;SDS011;46978;50.288;28.624;2022-12-07T05:42:41;12.25;;;7.26;;
60336;SDS011;46978;50.288;28.624;2022-12-07T05:43:43;12.03;;;4.85;;
60336;SDS011;46978;50.288;28.624;2022-12-07T05:44:45;11.61;;;5.46;;
60336;SDS011;46978;50.288;28.624;2022-12-07T05:45:47;12.44;;;6.29;;
60336;SDS011;46978;50.288;28.624;2022-12-07T05:46:49;15.46;;;8.47;;
60336;SDS011;46978;50.288;28.624;2022-12-07T05:47:51;17.46;;;10.34;;
60336;SDS011;46978;50.288;28.624;2022-12-07T05:48:52;14.21;;;7.85;;
60336;SDS011;46978;50.288;28.624;2022-12-07T05:49:54;11.05;;;5.50;;
60336;SDS011;46978;50.288;28.624;2022-12-07T05:50:56;11.94;;;5.57;;
60336;SDS011;46978;50.288;28.624;2022-12-07T05:51:58;9.79;;;4.66;;
60336;SDS011;46978;50.288;28.624;2022-12-07T05:53:00;11.50;;;4.95;;
60336;SDS011;46978;50.288;28.624;2022-12-07T05:54:02;8.66;;;4.53;;
60336;SDS011;46978;50.288;28.624;2022-12-07T05:55:03;9.67;;;4.76;;
60336;SDS011;46978;50.288;28.624;2022-12-07T05:56:07;15.66;;;6.64;;
60336;SDS011;46978;50.288;28.624;2022-12-07T05:57:08;11.81;;;5.19;;
60336;SDS011;46978;50.288;28.624;2022-12-07T05:58:10;14.86;;;5.56;;
60336;SDS011;46978;50.288;28.624;2022-12-07T05:59:12;14.61;;;5.28;;
60336;SDS011;46978;50.288;28.624;2022-12-07T06:00:14;15.01;;;6.43;;
60336;SDS011;46978;50.288;28.624;2022-12-07T06:01:16;12.65;;;6.27;;
60336;SDS011;46978;50.288;28.624;2022-12-07T06:02:18;11.17;;;5.02;;
60336;SDS011;46978;50.288;28.624;2022-12-07T06:03:20;12.44;;;5.27;;
60336;SDS011;46978;50.288;28.624;2022-12-07T06:04:22;12.91;;;5.50;;
60336;SDS011;46978;50.288;28.624;2022-12-07T06:05:24;9.28;;;5.05;;
60336;SDS011;46978;50.288;28.624;2022-12-07T06:06:26;12.27;;;5.35;;
60336;SDS011;46978;50.288;28.624;2022-12-07T06:07:28;13.83;;;5.86;;
60336;SDS011;46978;50.288;28.624;2022-12-07T06:08:29;9.88;;;4.29;;
60336;SDS011;46978;50.288;28.624;2022-12-07T06:09:32;24.99;;;10.41;;
60336;SDS011;46978;50.288;28.624;2022-12-07T06:10:34;18.60;;;9.09;;
60336;SDS011;46978;50.288;28.624;2022-12-07T06:11:36;16.67;;;7.66;;
60336;SDS011;46978;50.288;28.624;2022-12-07T06:12:38;14.26;;;6.29;;
60336;SDS011;46978;50.288;28.624;2022-12-07T06:13:39;11.87;;;5.89;;
60336;SDS011;46978;50.288;28.624;2022-12-07T06:14:41;10.23;;;5.64;;
60336;SDS011;46978;50.288;28.624;2022-12-07T06:15:43;11.33;;;6.09;;
60336;SDS011;46978;50.288;28.624;2022-12-07T06:16:45;21.31;;;10.56;;
60336;SDS011;46978;50.288;28.624;2022-12-07T06:17:47;15.92;;;7.22;;
60336;SDS011;46978;50.288;28.624;2022-12-07T06:18:48;16.55;;;7.77;;
60336;SDS011;46978;50.288;28.624;2022-12-07T06:19:50;15.47;;;7.04;;
60336;SDS011;46978;50.288;28.624;2022-12-07T06:20:52;14.84;;;7.30;;
60336;SDS011;46978;50.288;28.624;2022-12-07T06:21:54;16.02;;;7.40;;
60336;SDS011;46978;50.288;28.624;2022-12-07T06:22:56;17.44;;;8.59;;
60336;SDS011;46978;50.288;28.624;2022-12-07T06:23:58;11.88;;;6.25;;
60336;SDS011;46978;50.288;28.624;2022-12-07T06:24:59;10.74;;;5.82;;
60336;SDS011;46978;50.288;28.624;2022-12-07T06:26:01;12.73;;;6.50;;
60336;SDS011;46978;50.288;28.624;2022-12-07T06:27:03;22.05;;;10.77;;
60336;SDS011;46978;50.288;28.624;2022-12-07T06:28:06;17.08;;;8.73;;
60336;SDS011;46978;50.288;28.624;2022-12-07T06:29:08;20.64;;;10.48;;
60336;SDS011;46978;50.288;28.624;2022-12-07T06:30:12;16.66;;;9.51;;
60336;SDS011;46978;50.288;28.624;2022-12-07T06:31:13;21.25;;;11.74;;
60336;SDS011;46978;50.288;28.624;2022-12-07T06:32:15;19.13;;;11.18;;
60336;SDS011;46978;50.288;28.624;2022-12-07T06:33:17;17.51;;;9.63;;
60336;SDS011;46978;50.288;28.624;2022-12-07T06:34:19;14.71;;;9.50;;
60336;SDS011;46978;50.288;28.624;2022-12-07T06:35:22;16.87;;;9.02;;
60336;SDS011;46978;50.288;28.624;2022-12-07T06:36:24;13.13;;;7.06;;
60336;SDS011;46978;50.288;28.624;2022-12-07T06:37:26;18.25;;;9.42;;
60336;SDS011;46978;50.288;28.624;2022-12-07T06:38:28;18.91;;;10.71;;
60336;SDS011;46978;50.288;28.624;2022-12-07T06:39:29;20.63;;;11.31;;
60336;SDS011;46978;50.288;28.624;2022-12-07T06:40:32;24.71;;;14.43;;
60336;SDS011;46978;50.288;28.624;2022-12-07T06:41:33;25.45;;;14.86;;
60336;SDS011;46978;50.288;28.624;2022-12-07T06:42:35;16.82;;;9.93;;
60336;SDS011;46978;50.288;28.624;2022-12-07T06:43:37;22.84;;;13.34;;
60336;SDS011;46978;50.288;28.624;2022-12-07T06:44:38;12.80;;;7.44;;
60336;SDS011;46978;50.288;28.624;2022-12-07T06:45:40;9.66;;;5.53;;